Time;durP1;ratioP1;P1;durP2;ratioP2;P2;SDS_P1;SDS_P2;PMS_P1;PMS_P2;Temp;Humidity;BMP_temperature;BMP_pressure;BME280_temperature;BME280_humidity;BME280_pressure;Samples;Min_cycle;Max_cycle;Signal;HPM_P1;HPM_P2
2021/03/05 00:02:22;;;;;;;13.73;10.23;;;;;;;4.88;100.00;96071.66;5015834;28;20211;-89
2021/03/05 00:04:49;;;;;;;17.83;11.83;;;;;;;4.87;100.00;96075.22;5015656;28;20239;-89
2021/03/05 00:07:17;;;;;;;14.63;10.53;;;;;;;5.14;100.00;96073.84;5015701;28;20188;-90
2021/03/05 00:09:44;;;;;;;13.03;9.80;;;;;;;5.09;100.00;96096.84;5016234;28;20257;-90
2021/03/05 00:12:12;;;;;;;13.87;9.43;;;;;;;5.05;100.00;96104.09;5015956;28;20278;-89
2021/03/05 00:14:40;;;;;;;17.30;12.07;;;;;;;4.81;100.00;96106.13;5015688;28;20282;-91
2021/03/05 00:17:10;;;;;;;14.63;11.03;;;;;;;5.06;100.00;96099.72;5015524;28;20199;-90
2021/03/05 00:19:37;;;;;;;16.93;11.33;;;;;;;5.05;100.00;96104.09;5015332;28;20199;-89
2021/03/05 00:22:04;;;;;;;20.43;10.90;;;;;;;5.04;100.00;96101.63;5015328;28;20196;-90
2021/03/05 00:24:32;;;;;;;14.30;9.77;;;;;;;4.82;100.00;96085.19;5015133;28;20207;-91
2021/03/05 00:26:59;;;;;;;13.77;10.23;;;;;;;4.99;100.00;96068.16;5015145;28;20207;-90
2021/03/05 00:29:26;;;;;;;14.43;9.70;;;;;;;4.79;100.00;96056.00;5015762;28;20199;-91
2021/03/05 00:31:53;;;;;;;11.17;9.40;;;;;;;4.83;100.00;96054.78;5015213;28;20211;-89
2021/03/05 00:34:20;;;;;;;13.23;9.90;;;;;;;5.07;100.00;96057.09;5014829;28;20257;-90
2021/03/05 00:36:47;;;;;;;17.00;11.40;;;;;;;5.06;100.00;96061.47;5015026;28;20787;-90
2021/03/05 00:39:14;;;;;;;15.53;11.30;;;;;;;4.93;100.00;96048.66;5015023;28;20318;-90
2021/03/05 00:41:41;;;;;;;14.83;11.00;;;;;;;4.88;100.00;96048.22;5015044;28;20282;-89
2021/03/05 00:44:09;;;;;;;16.80;10.80;;;;;;;4.76;100.00;96031.03;5014968;28;20291;-90
2021/03/05 00:46:35;;;;;;;13.87;11.80;;;;;;;4.90;100.00;96038.50;5014829;28;20234;-92
2021/03/05 00:49:03;;;;;;;14.57;10.47;;;;;;;4.88;100.00;96050.00;5015015;28;20689;-90
2021/03/05 00:51:30;;;;;;;19.07;11.87;;;;;;;4.85;100.00;96051.09;5014031;28;20196;-90
2021/03/05 00:53:57;;;;;;;15.37;10.33;;;;;;;4.72;100.00;96043.47;5014905;28;20191;-90
2021/03/05 00:56:23;;;;;;;16.83;10.57;;;;;;;4.61;100.00;96040.94;5014789;28;20199;-90
2021/03/05 00:58:51;;;;;;;12.90;9.63;;;;;;;4.30;100.00;96034.84;5015062;28;20212;-90
2021/03/05 01:01:18;;;;;;;14.03;10.30;;;;;;;4.23;100.00;96007.69;5014728;28;20229;-91
2021/03/05 01:03:45;;;;;;;14.33;10.17;;;;;;;4.35;100.00;95991.03;5014561;28;20207;-90
2021/03/05 01:06:12;;;;;;;12.77;9.57;;;;;;;4.34;100.00;95986.81;5014396;28;20242;-88
2021/03/05 01:08:39;;;;;;;13.07;9.90;;;;;;;4.50;100.00;95987.19;5014625;28;20710;-89
2021/03/05 01:11:06;;;;;;;12.80;9.47;;;;;;;4.26;100.00;95986.59;5014510;28;20668;-90
2021/03/05 01:13:32;;;;;;;13.73;9.83;;;;;;;4.12;100.00;95968.69;5014432;28;20723;-90
2021/03/05 01:16:00;;;;;;;11.87;9.63;;;;;;;3.97;100.00;95953.41;5014271;28;20275;-90
2021/03/05 01:18:27;;;;;;;13.50;10.37;;;;;;;3.74;100.00;95923.25;5014188;28;20271;-90
2021/03/05 01:20:54;;;;;;;11.67;9.90;;;;;;;3.75;100.00;95886.75;5014077;28;20235;-89
2021/03/05 01:23:21;;;;;;;12.87;9.70;;;;;;;4.15;100.00;95890.41;5014293;28;20192;-90
2021/03/05 01:25:48;;;;;;;16.53;9.87;;;;;;;4.20;100.00;95903.88;5014451;28;20286;-90
2021/03/05 01:28:15;;;;;;;14.53;9.63;;;;;;;4.26;100.00;95903.34;5014126;28;20195;-90
2021/03/05 01:30:42;;;;;;;12.17;10.30;;;;;;;4.09;100.00;95907.38;5013907;28;20195;-91
2021/03/05 01:33:10;;;;;;;17.07;10.93;;;;;;;4.23;100.00;95893.22;5014099;28;20269;-91
2021/03/05 01:35:37;;;;;;;12.47;9.77;;;;;;;4.35;100.00;95914.78;5013801;28;20206;-89
2021/03/05 01:38:04;;;;;;;17.30;10.00;;;;;;;4.46;100.00;95917.28;5013671;28;20195;-91
2021/03/05 01:40:33;;;;;;;11.30;9.40;;;;;;;4.25;100.00;95931.13;5013802;28;20766;-91
2021/03/05 01:43:01;;;;;;;13.90;9.67;;;;;;;3.91;100.00;95912.31;5013746;28;20246;-90
2021/03/05 01:45:31;;;;;;;13.20;9.60;;;;;;;3.86;100.00;95880.66;5014308;28;20649;-92
2021/03/05 01:47:59;;;;;;;13.40;9.43;;;;;;;4.04;100.00;95878.31;5013474;28;20230;-91
2021/03/05 01:50:30;;;;;;;15.97;10.50;;;;;;;4.27;100.00;95879.81;5013927;28;20206;-91
2021/03/05 01:52:59;;;;;;;12.07;9.13;;;;;;;4.49;100.00;95909.22;5014119;28;20187;-92
2021/03/05 01:55:26;;;;;;;15.83;10.10;;;;;;;4.27;100.00;95925.81;5014218;28;20576;-90
2021/03/05 01:57:54;;;;;;;13.70;11.47;;;;;;;3.96;100.00;95915.38;5013765;28;20263;-92
2021/03/05 02:00:27;;;;;;;13.80;9.93;;;;;;;3.93;100.00;95883.59;5013336;28;20226;-90
2021/03/05 02:02:54;;;;;;;16.07;10.57;;;;;;;4.17;100.00;95867.72;5013306;28;20199;-91
2021/03/05 02:05:21;;;;;;;12.93;10.03;;;;;;;3.74;100.00;95876.47;5013671;28;20282;-91
2021/03/05 02:07:49;;;;;;;11.73;9.37;;;;;;;3.58;100.00;95850.94;5013380;28;20195;-93
2021/03/05 02:10:16;;;;;;;13.63;9.80;;;;;;;4.00;100.00;95836.16;5013539;28;20290;-92
2021/03/05 02:12:43;;;;;;;11.43;8.77;;;;;;;3.99;100.00;95860.50;5013219;28;20199;-90
2021/03/05 02:15:14;;;;;;;11.73;9.73;;;;;;;4.15;100.00;95893.03;5012684;28;20251;-88
2021/03/05 02:17:49;;;;;;;12.23;9.20;;;;;;;4.00;100.00;95906.34;5013249;28;20195;-89
2021/03/05 02:20:32;;;;;;;13.70;10.03;;;;;;;3.84;100.00;95895.56;5013385;28;20703;-88
2021/03/05 02:23:35;;;;;;;11.03;9.37;;;;;;;3.99;100.00;95870.91;5013515;28;20253;-88
2021/03/05 02:26:54;;;;;;;13.30;9.83;;;;;;;3.87;100.00;95868.50;5013052;28;20238;-88
2021/03/05 02:29:59;;;;;;;12.70;9.97;;;;;;;3.76;100.00;95864.19;5013114;28;20207;-88
2021/03/05 02:32:37;;;;;;;13.03;9.67;;;;;;;3.69;100.00;95858.66;5013013;28;20183;-88
2021/03/05 02:35:06;;;;;;;13.27;9.70;;;;;;;3.69;100.00;95817.06;5012942;28;20192;-87
2021/03/05 02:37:37;;;;;;;14.03;10.97;;;;;;;3.94;100.00;95813.25;5012857;28;20297;-86
2021/03/05 02:40:11;;;;;;;13.20;9.40;;;;;;;3.83;100.00;95818.53;5013018;28;20208;-87
2021/03/05 02:42:46;;;;;;;14.03;9.73;;;;;;;3.79;100.00;95819.75;5012363;28;20218;-87
2021/03/05 02:45:16;;;;;;;9.83;8.27;;;;;;;4.02;100.00;95838.63;5012868;28;20211;-87
2021/03/05 02:47:46;;;;;;;12.67;8.90;;;;;;;4.10;100.00;95846.59;5012553;28;20227;-87
2021/03/05 02:50:16;;;;;;;20.20;10.07;;;;;;;4.11;100.00;95853.44;5012764;28;20199;-87
2021/03/05 02:52:46;;;;;;;14.43;9.93;;;;;;;4.28;100.00;95857.22;5012834;28;20235;-87
2021/03/05 02:55:14;;;;;;;12.07;9.57;;;;;;;3.86;100.00;95869.44;5012568;28;20238;-87
2021/03/05 02:57:46;;;;;;;12.60;9.43;;;;;;;3.66;100.00;95842.50;5012983;28;20269;-87
2021/03/05 03:00:15;;;;;;;11.40;9.77;;;;;;;3.58;100.00;95830.16;5012525;28;20707;-88
2021/03/05 03:02:43;;;;;;;13.00;9.53;;;;;;;3.62;100.00;95820.31;5012652;28;20676;-87
2021/03/05 03:05:13;;;;;;;12.53;9.53;;;;;;;3.53;100.00;95816.69;5012851;28;20290;-88
2021/03/05 03:07:41;;;;;;;11.07;9.33;;;;;;;3.49;100.00;95804.91;5012616;28;20196;-87
2021/03/05 03:10:11;;;;;;;10.93;9.37;;;;;;;3.40;100.00;95790.91;5012912;28;20278;-88
2021/03/05 03:12:38;;;;;;;12.00;9.43;;;;;;;3.55;100.00;95774.03;5012985;28;20314;-88
2021/03/05 03:15:07;;;;;;;12.80;9.53;;;;;;;3.68;100.00;95775.63;5016121;28;20272;-87
2021/03/05 03:17:44;;;;;;;10.67;8.73;;;;;;;3.88;100.00;95794.75;5016183;28;20199;-89
2021/03/05 03:20:17;;;;;;;13.80;10.10;;;;;;;3.74;100.00;95812.34;5017247;28;20703;-88
2021/03/05 03:22:44;;;;;;;12.90;9.07;;;;;;;3.48;100.00;95804.09;5017208;28;20231;-88
2021/03/05 03:25:12;;;;;;;14.50;10.00;;;;;;;3.40;100.00;95783.13;5016433;28;20207;-88
2021/03/05 03:27:39;;;;;;;12.27;9.53;;;;;;;3.34;100.00;95765.44;5016209;28;20238;-88
2021/03/05 03:30:07;;;;;;;11.40;9.67;;;;;;;3.23;100.00;95752.53;5016288;28;20664;-88
2021/03/05 03:32:36;;;;;;;13.33;10.23;;;;;;;3.39;100.00;95732.09;5016266;28;20195;-88
2021/03/05 03:35:04;;;;;;;10.50;8.77;;;;;;;3.30;100.00;95727.69;5016201;28;20199;-88
2021/03/05 03:37:33;;;;;;;11.83;8.70;;;;;;;3.20;100.00;95726.78;5016134;28;20253;-88
2021/03/05 03:40:00;;;;;;;15.30;11.13;;;;;;;3.25;100.00;95722.03;5016128;28;20228;-89
2021/03/05 03:42:27;;;;;;;13.73;9.67;;;;;;;3.24;100.00;95720.41;5016196;28;20198;-89
2021/03/05 03:44:57;;;;;;;14.00;10.67;;;;;;;3.31;100.00;95724.13;5016228;28;20672;-90
2021/03/05 03:47:24;;;;;;;12.60;8.70;;;;;;;3.65;100.00;95734.31;5015681;28;20223;-89
2021/03/05 03:49:56;;;;;;;11.57;9.07;;;;;;;3.84;100.00;95781.19;5016122;28;20213;-89
2021/03/05 03:52:29;;;;;;;13.43;10.03;;;;;;;3.93;100.00;95803.00;5015877;28;20223;-90
2021/03/05 03:54:58;;;;;;;13.87;9.80;;;;;;;3.91;100.00;95828.28;5015984;28;20246;-90
2021/03/05 03:57:26;;;;;;;11.07;8.97;;;;;;;3.51;100.00;95829.81;5015067;28;20214;-90
2021/03/05 03:59:54;;;;;;;13.43;10.50;;;;;;;3.31;100.00;95802.88;5014894;28;20585;-93
2021/03/05 04:02:28;;;;;;;15.37;9.87;;;;;;;3.42;100.00;95788.19;5014109;28;20200;-91
2021/03/05 04:05:02;;;;;;;13.67;10.47;;;;;;;3.23;100.00;95773.28;5016140;28;20619;-89
2021/03/05 04:07:31;;;;;;;16.17;10.33;;;;;;;3.27;100.00;95754.72;4997069;28;20299;-89
2021/03/05 04:10:02;;;;;;;27.43;16.63;;;;;;;3.50;100.00;95759.81;4996370;28;20654;-88
2021/03/05 04:12:30;;;;;;;27.80;17.37;;;;;;;3.39;100.00;95772.84;4996281;28;20188;-90
2021/03/05 04:14:57;;;;;;;45.30;30.60;;;;;;;3.12;100.00;95757.75;5007449;28;20290;-88
2021/03/05 04:17:24;;;;;;;221.63;115.37;;;;;;;2.90;100.00;95733.53;5015417;28;20206;-94
2021/03/05 04:19:52;;;;;;;47.63;29.10;;;;;;;2.80;100.00;95719.66;5015423;28;20195;-94
2021/03/05 04:22:19;;;;;;;20.90;16.27;;;;;;;2.73;100.00;95698.56;5015530;28;20203;-94
2021/03/05 04:24:46;;;;;;;19.30;14.67;;;;;;;2.72;100.00;95678.75;5014476;28;20195;-94
2021/03/05 04:27:13;;;;;;;16.50;12.10;;;;;;;2.65;100.00;95653.44;5015534;28;20207;-93
2021/03/05 04:29:40;;;;;;;17.40;13.50;;;;;;;2.67;100.00;95626.44;5015624;28;20191;-93
2021/03/05 04:32:07;;;;;;;16.70;12.17;;;;;;;2.70;100.00;95623.59;5015867;28;20206;-93
2021/03/05 04:34:52;;;;;;;16.30;12.60;;;;;;;3.09;100.00;95627.25;5014872;28;20256;-94
2021/03/05 04:37:19;;;;;;;22.43;16.23;;;;;;;2.99;100.00;95683.47;5014458;28;20183;-93
2021/03/05 04:39:45;;;;;;;23.20;16.73;;;;;;;3.02;100.00;95680.63;5015092;28;20275;-93
2021/03/05 04:42:13;;;;;;;18.10;13.90;;;;;;;2.94;100.00;95697.75;5014999;28;20295;-93
2021/03/05 04:44:40;;;;;;;15.93;11.60;;;;;;;3.21;100.00;95707.66;5015577;28;20210;-94
2021/03/05 04:47:07;;;;;;;16.40;11.40;;;;;;;3.16;100.00;95710.66;5015552;28;20227;-93
2021/03/05 04:49:34;;;;;;;19.67;14.07;;;;;;;3.06;100.00;95720.97;5016011;28;20246;-93
2021/03/05 04:52:01;;;;;;;21.20;14.03;;;;;;;2.85;100.00;95733.09;5014807;28;20665;-92
2021/03/05 04:54:28;;;;;;;43.63;28.30;;;;;;;2.58;100.00;95711.00;5014748;28;20199;-91
2021/03/05 04:56:54;;;;;;;24.27;19.43;;;;;;;2.63;100.00;95684.69;5015006;28;20199;-94
2021/03/05 04:59:22;;;;;;;16.10;10.07;;;;;;;2.59;100.00;95626.22;5014913;28;20195;-93
2021/03/05 05:01:49;;;;;;;15.50;10.17;;;;;;;2.72;100.00;95587.94;5013391;28;20223;-90
2021/03/05 05:04:16;;;;;;;26.87;18.23;;;;;;;2.80;100.00;95574.31;5013463;28;20204;-92
2021/03/05 05:06:43;;;;;;;25.00;17.70;;;;;;;2.68;100.00;95570.16;5013931;28;20301;-88
2021/03/05 05:09:10;;;;;;;20.27;14.53;;;;;;;2.85;100.00;95551.41;5014341;28;20215;-88
2021/03/05 05:11:36;;;;;;;14.30;11.67;;;;;;;3.16;100.00;95569.59;5014140;28;20202;-87
2021/03/05 05:14:04;;;;;;;12.23;10.40;;;;;;;3.14;100.00;95618.25;5014245;28;20203;-88
2021/03/05 05:16:31;;;;;;;13.90;10.53;;;;;;;3.27;100.00;95650.03;5014405;28;20645;-88
2021/03/05 05:18:58;;;;;;;13.23;10.00;;;;;;;3.10;100.00;95680.00;5014319;28;20200;-88
2021/03/05 05:21:25;;;;;;;13.20;10.30;;;;;;;3.45;100.00;95668.44;5013882;28;20220;-87
2021/03/05 05:23:52;;;;;;;12.70;10.07;;;;;;;3.41;100.00;95716.41;5014277;28;20222;-87
2021/03/05 05:26:18;;;;;;;14.33;10.80;;;;;;;3.34;100.00;95729.88;5014190;28;20215;-89
2021/03/05 05:28:45;;;;;;;14.80;10.43;;;;;;;3.50;100.00;95732.03;5014359;28;20547;-88
2021/03/05 05:31:12;;;;;;;13.33;10.83;;;;;;;3.42;100.00;95750.03;5014044;28;20555;-88
2021/03/05 05:33:40;;;;;;;10.93;9.63;;;;;;;3.60;100.00;95759.84;5014103;28;20287;-87
2021/03/05 05:36:07;;;;;;;16.47;11.97;;;;;;;3.23;100.00;95760.31;5013990;28;20649;-87
2021/03/05 05:38:34;;;;;;;17.10;13.03;;;;;;;3.38;100.00;95733.06;5014156;28;20210;-88
2021/03/05 05:41:02;;;;;;;15.93;14.23;;;;;;;3.30;100.00;95723.31;5013813;28;20285;-87
2021/03/05 05:43:31;;;;;;;26.20;19.23;;;;;;;3.25;100.00;95675.28;5013721;28;20195;-86
2021/03/05 05:46:04;;;;;;;29.50;19.97;;;;;;;3.48;100.00;95643.00;5013208;28;20227;-87
2021/03/05 05:48:31;;;;;;;21.97;17.03;;;;;;;3.72;100.00;95665.25;5013443;28;20199;-87
2021/03/05 05:50:59;;;;;;;18.23;14.73;;;;;;;3.83;100.00;95688.56;5013440;28;20203;-87
2021/03/05 05:53:31;;;;;;;14.00;12.03;;;;;;;3.90;100.00;95731.25;5013021;28;20196;-87
2021/03/05 05:55:59;;;;;;;15.37;10.60;;;;;;;3.86;100.00;95771.47;5013036;28;20244;-86
2021/03/05 05:58:28;;;;;;;11.83;9.93;;;;;;;3.88;100.00;95789.53;5012785;28;20203;-86
2021/03/05 06:00:57;;;;;;;12.27;9.20;;;;;;;3.88;100.00;95800.78;5012530;28;20262;-86
2021/03/05 06:03:28;;;;;;;18.47;14.33;;;;;;;4.22;100.00;95803.09;5012952;28;20205;-86
2021/03/05 06:05:56;;;;;;;17.27;13.03;;;;;;;4.16;100.00;95798.44;5012342;28;20191;-86
2021/03/05 06:08:24;;;;;;;23.63;18.10;;;;;;;4.53;100.00;95802.13;5012694;28;20207;-83
2021/03/05 06:10:52;;;;;;;20.43;14.70;;;;;;;4.48;100.00;95825.13;5013142;28;20273;-83
2021/03/05 06:13:20;;;;;;;18.73;15.27;;;;;;;4.68;100.00;95846.84;5012478;28;20196;-83
2021/03/05 06:16:01;;;;;;;18.50;15.13;;;;;;;4.64;100.00;95855.03;5012639;28;20573;-84
2021/03/05 06:18:31;;;;;;;84.00;45.20;;;;;;;4.75;100.00;95852.34;5012388;28;20222;-85
2021/03/05 06:20:59;;;;;;;45.47;27.37;;;;;;;5.09;100.00;95836.34;5012735;28;20230;-84
2021/03/05 06:23:27;;;;;;;39.77;24.33;;;;;;;5.29;100.00;95839.81;5012710;28;20219;-85
2021/03/05 06:25:59;;;;;;;27.30;16.20;;;;;;;5.57;100.00;95848.59;5012414;28;20234;-85
2021/03/05 06:28:27;;;;;;;10.60;8.90;;;;;;;5.85;100.00;95905.09;5012056;28;20188;-84
2021/03/05 06:30:54;;;;;;;21.13;14.07;;;;;;;5.98;100.00;95940.56;5012307;28;20684;-84
2021/03/05 06:33:26;;;;;;;19.33;15.10;;;;;;;6.00;100.00;95899.53;5012142;28;20287;-85
2021/03/05 06:35:54;;;;;;;22.77;17.97;;;;;;;5.93;100.00;95923.56;5012126;28;20195;-84
2021/03/05 06:38:43;;;;;;;23.60;17.90;;;;;;;5.84;100.00;95942.59;5012146;28;20294;-85
2021/03/05 06:41:18;;;;;;;24.47;18.73;;;;;;;5.88;100.00;95954.38;5008096;28;20607;-84
2021/03/05 06:43:46;;;;;;;25.37;17.20;;;;;;;6.19;100.00;95960.31;5012082;28;20201;-85
2021/03/05 06:46:38;;;;;;;29.47;18.97;;;;;;;6.28;100.00;95973.50;5011864;28;20250;-85
2021/03/05 06:49:07;;;;;;;19.20;12.97;;;;;;;6.56;100.00;95998.75;5014303;28;20198;-84
2021/03/05 06:51:34;;;;;;;17.80;10.73;;;;;;;6.90;100.00;96029.59;5015582;28;20199;-85
2021/03/05 06:54:10;;;;;;;21.37;12.10;;;;;;;7.21;100.00;96058.94;5015699;28;20665;-86
2021/03/05 06:56:39;;;;;;;21.80;13.83;;;;;;;7.55;100.00;96071.44;5016048;28;20198;-84
2021/03/05 06:59:08;;;;;;;31.13;21.90;;;;;;;7.55;100.00;96082.75;5016038;28;20246;-85
2021/03/05 07:01:46;;;;;;;27.53;18.93;;;;;;;7.66;100.00;96081.75;5016003;28;20317;-85
2021/03/05 07:04:14;;;;;;;29.97;20.57;;;;;;;7.70;100.00;96072.63;5016094;28;20187;-85
2021/03/05 07:06:41;;;;;;;41.40;21.43;;;;;;;8.12;100.00;96076.53;5015808;28;20226;-84
2021/03/05 07:09:11;;;;;;;33.60;20.80;;;;;;;8.21;100.00;96079.09;5016065;28;20195;-84
2021/03/05 07:11:40;;;;;;;25.60;17.27;;;;;;;8.46;100.00;96087.22;5015753;28;20199;-84
2021/03/05 07:14:09;;;;;;;19.27;13.70;;;;;;;8.56;100.00;96065.19;5015802;28;20235;-85
2021/03/05 07:16:41;;;;;;;17.20;13.00;;;;;;;8.88;100.00;96076.91;5015826;28;20268;-84
2021/03/05 07:19:09;;;;;;;18.87;13.63;;;;;;;9.36;100.00;96103.63;5015779;28;20207;-85
2021/03/05 07:21:41;;;;;;;18.53;12.70;;;;;;;9.81;100.00;96128.78;5015518;28;20314;-84
2021/03/05 07:24:10;;;;;;;14.63;11.70;;;;;;;10.13;100.00;96143.84;5016040;28;20194;-85
2021/03/05 07:26:52;;;;;;;18.60;11.57;;;;;;;10.33;100.00;96160.19;5015761;28;20202;-86
2021/03/05 07:29:22;;;;;;;12.37;10.57;;;;;;;10.22;100.00;96175.22;5015958;28;20325;-86
2021/03/05 07:31:57;;;;;;;13.43;10.57;;;;;;;10.40;100.00;96179.59;5015517;28;20245;-85
2021/03/05 07:34:26;;;;;;;10.33;9.07;;;;;;;10.57;100.00;96227.75;5015394;28;20261;-86
2021/03/05 07:36:57;;;;;;;17.87;9.80;;;;;;;10.71;100.00;96221.88;5015396;28;20203;-86
2021/03/05 07:39:32;;;;;;;11.77;8.67;;;;;;;11.08;100.00;96213.56;5015422;28;20187;-86
2021/03/05 07:41:59;;;;;;;14.20;9.50;;;;;;;11.33;100.00;96242.53;5015489;28;20649;-84
2021/03/05 07:44:27;;;;;;;12.13;9.17;;;;;;;11.47;100.00;96257.66;5015296;28;20230;-86
2021/03/05 07:46:54;;;;;;;14.03;9.47;;;;;;;11.37;100.00;96267.53;5015222;28;20795;-85
2021/03/05 07:49:28;;;;;;;12.00;9.70;;;;;;;11.54;100.00;96271.00;5015302;28;20208;-86
2021/03/05 07:51:57;;;;;;;12.73;9.73;;;;;;;11.81;100.00;96268.03;5015366;28;20227;-85
2021/03/05 07:54:44;;;;;;;14.20;10.47;;;;;;;12.15;100.00;96269.63;5015196;28;20245;-86
2021/03/05 07:57:44;;;;;;;11.77;10.30;;;;;;;12.34;100.00;96269.25;5015332;28;20295;-86
2021/03/05 08:00:12;;;;;;;15.23;10.47;;;;;;;12.70;100.00;96278.53;5014695;28;20203;-86
2021/03/05 08:02:53;;;;;;;13.73;9.63;;;;;;;12.94;100.00;96285.50;5014984;28;20231;-86
2021/03/05 08:05:41;;;;;;;14.93;10.90;;;;;;;13.09;100.00;96304.88;5015043;28;20288;-85
2021/03/05 08:08:22;;;;;;;14.00;10.03;;;;;;;13.40;100.00;96301.41;5014843;28;20239;-86
2021/03/05 08:10:55;;;;;;;14.77;11.40;;;;;;;13.63;100.00;96301.44;5015157;28;20328;-86
2021/03/05 08:13:44;;;;;;;14.63;11.87;;;;;;;13.89;100.00;96301.88;5014848;28;20257;-86
2021/03/05 08:16:39;;;;;;;14.83;10.73;;;;;;;14.11;100.00;96294.09;5014971;28;20202;-86
2021/03/05 08:19:49;;;;;;;18.50;14.37;;;;;;;13.93;100.00;96286.50;4997200;28;20261;-86
2021/03/05 08:22:17;;;;;;;20.00;15.20;;;;;;;14.09;100.00;96274.94;5014750;28;20656;-86
2021/03/05 08:24:44;;;;;;;34.07;21.87;;;;;;;14.14;100.00;96252.28;5014935;28;20250;-86
2021/03/05 08:27:18;;;;;;;25.67;19.77;;;;;;;14.23;100.00;96251.16;5014641;28;20211;-86
2021/03/05 08:30:00;;;;;;;25.70;19.27;;;;;;;14.65;100.00;96251.53;5014656;28;20188;-86
2021/03/05 08:32:52;;;;;;;25.53;20.67;;;;;;;14.93;100.00;96251.72;5014455;28;20242;-86
2021/03/05 08:35:36;;;;;;;24.23;18.77;;;;;;;15.06;100.00;96257.13;5014539;28;20203;-86
2021/03/05 08:38:04;;;;;;;21.60;16.63;;;;;;;15.42;100.00;96257.09;5013996;28;20199;-86
2021/03/05 08:40:33;;;;;;;25.53;18.23;;;;;;;15.34;100.00;96253.75;5014499;28;20223;-86
2021/03/05 08:43:25;;;;;;;23.10;16.23;;;;;;;15.28;100.00;96263.28;5014290;28;20269;-86
2021/03/05 08:45:55;;;;;;;22.10;16.03;;;;;;;15.04;100.00;96268.94;5014505;28;20206;-87
2021/03/05 08:48:30;;;;;;;21.77;16.00;;;;;;;15.53;100.00;96262.91;5014235;28;20188;-86
2021/03/05 08:51:09;;;;;;;24.40;17.83;;;;;;;15.90;100.00;96262.66;5014475;28;20239;-86
2021/03/05 08:53:40;;;;;;;27.43;20.13;;;;;;;16.11;100.00;96266.28;5014587;28;20642;-86
2021/03/05 08:56:09;;;;;;;20.20;16.43;;;;;;;16.54;100.00;96277.56;5014013;28;20204;-87
2021/03/05 08:58:37;;;;;;;22.63;15.20;;;;;;;16.37;100.00;96277.06;5014118;28;20236;-87
2021/03/05 09:01:04;;;;;;;19.27;14.77;;;;;;;16.31;100.00;96277.81;5014379;28;20225;-87
2021/03/05 09:03:31;;;;;;;18.27;15.47;;;;;;;16.16;100.00;96271.81;5014432;28;20624;-87
2021/03/05 09:05:57;;;;;;;18.10;14.43;;;;;;;17.05;100.00;96261.28;5014430;28;20622;-86
2021/03/05 09:08:26;;;;;;;24.93;16.10;;;;;;;16.71;100.00;96253.38;5013842;28;20342;-87
2021/03/05 09:10:55;;;;;;;20.73;15.60;;;;;;;17.26;100.00;96264.84;5013263;28;20204;-86
2021/03/05 09:13:24;;;;;;;20.30;16.43;;;;;;;17.10;100.00;96261.50;5013761;28;20838;-87
2021/03/05 09:15:54;;;;;;;22.27;15.73;;;;;;;17.43;100.00;96249.34;5013846;28;20202;-86
2021/03/05 09:18:23;;;;;;;19.13;16.13;;;;;;;17.57;100.00;96251.00;5014074;28;20242;-87
2021/03/05 09:20:52;;;;;;;20.93;15.37;;;;;;;17.31;100.00;96251.75;5013738;28;20229;-87
2021/03/05 09:23:21;;;;;;;22.00;16.30;;;;;;;17.67;100.00;96246.09;5013753;28;20293;-88
2021/03/05 09:25:54;;;;;;;19.00;14.70;;;;;;;17.54;100.00;96254.88;5013690;28;20265;-88
2021/03/05 09:28:22;;;;;;;17.10;15.03;;;;;;;17.67;100.00;96251.41;5013693;28;20256;-87
2021/03/05 09:30:51;;;;;;;19.10;14.97;;;;;;;17.78;100.00;96250.03;5013934;28;20199;-88
2021/03/05 09:33:27;;;;;;;20.17;15.80;;;;;;;17.81;100.00;96245.13;5013754;28;20272;-88
2021/03/05 09:35:59;;;;;;;22.07;16.93;;;;;;;17.96;100.00;96260.03;5013668;28;20194;-85
2021/03/05 09:38:26;;;;;;;22.03;18.17;;;;;;;18.34;100.00;96256.72;5013958;28;20240;-85
2021/03/05 09:40:53;;;;;;;25.90;19.23;;;;;;;18.47;100.00;96262.03;5013342;28;20245;-86
2021/03/05 09:43:21;;;;;;;18.80;15.70;;;;;;;17.77;100.00;96267.81;5013382;28;20199;-85
2021/03/05 09:45:50;;;;;;;27.83;20.40;;;;;;;18.40;100.00;96261.22;5013138;28;20207;-85
2021/03/05 09:48:31;;;;;;;21.83;16.80;;;;;;;18.02;100.00;96265.34;5013301;28;20203;-86
2021/03/05 09:51:00;;;;;;;16.77;14.00;;;;;;;17.32;100.00;96270.16;5013421;28;20201;-86
2021/03/05 09:53:30;;;;;;;17.87;15.23;;;;;;;17.34;100.00;96268.09;5013640;28;20664;-86
2021/03/05 09:56:00;;;;;;;22.80;15.23;;;;;;;17.00;100.00;96261.06;5013258;28;20211;-86
2021/03/05 09:58:27;;;;;;;20.20;13.37;;;;;;;16.93;100.00;96256.75;5013485;28;20708;-86
2021/03/05 10:00:55;;;;;;;17.50;15.70;;;;;;;16.88;100.00;96254.69;5013169;28;20229;-85
2021/03/05 10:03:23;;;;;;;16.80;14.57;;;;;;;17.35;100.00;96247.66;5013650;28;20288;-85
2021/03/05 10:05:51;;;;;;;17.00;14.53;;;;;;;17.85;100.00;96250.84;5013483;28;20208;-86
2021/03/05 10:08:20;;;;;;;23.80;16.87;;;;;;;17.71;100.00;96257.97;5013348;28;20202;-86
2021/03/05 10:11:01;;;;;;;23.40;17.13;;;;;;;17.46;100.00;96241.78;5013508;28;20210;-87
2021/03/05 10:13:48;;;;;;;18.73;15.00;;;;;;;17.90;100.00;96250.22;5013265;28;20190;-86
2021/03/05 10:16:20;;;;;;;18.43;15.77;;;;;;;18.51;100.00;96252.59;5013241;28;20214;-86
2021/03/05 10:18:49;;;;;;;19.87;15.77;;;;;;;19.01;100.00;96247.53;5013355;28;20644;-86
2021/03/05 10:21:19;;;;;;;21.03;15.33;;;;;;;18.26;100.00;96244.47;5012997;28;20237;-86
2021/03/05 10:23:47;;;;;;;22.03;15.47;;;;;;;18.40;100.00;96242.59;5013421;28;20206;-86
2021/03/05 10:26:21;;;;;;;21.47;15.67;;;;;;;18.05;100.00;96243.66;5013050;28;20296;-86
2021/03/05 10:28:54;;;;;;;21.00;17.67;;;;;;;18.38;100.00;96234.81;5012857;28;20182;-87
2021/03/05 10:31:22;;;;;;;24.57;18.90;;;;;;;18.51;100.00;96237.44;5012925;28;20198;-85
2021/03/05 10:33:48;;;;;;;22.27;15.97;;;;;;;18.15;100.00;96232.63;5013005;28;20207;-86
2021/03/05 10:36:16;;;;;;;18.63;14.40;;;;;;;18.64;100.00;96241.09;5013154;28;20206;-86
2021/03/05 10:38:44;;;;;;;19.50;15.30;;;;;;;18.66;100.00;96237.19;5012969;28;20698;-86
2021/03/05 10:41:11;;;;;;;21.77;17.43;;;;;;;19.56;100.00;96229.16;5013269;28;20230;-86
2021/03/05 10:43:39;;;;;;;19.80;15.03;;;;;;;18.46;100.00;96220.44;5013102;28;20307;-86
2021/03/05 10:46:07;;;;;;;25.70;18.83;;;;;;;19.58;100.00;96219.13;5012561;28;20238;-86
2021/03/05 10:48:34;;;;;;;20.77;17.70;;;;;;;20.04;100.00;96209.94;5012980;28;20827;-86
2021/03/05 10:51:01;;;;;;;20.63;15.90;;;;;;;19.18;100.00;96215.88;5012782;28;20257;-86
2021/03/05 10:53:29;;;;;;;19.70;16.17;;;;;;;19.59;100.00;96214.59;5012559;28;20195;-87
2021/03/05 10:55:56;;;;;;;19.43;15.80;;;;;;;18.86;100.00;96229.16;5013389;28;20541;-85
2021/03/05 10:58:23;;;;;;;21.33;16.27;;;;;;;19.12;100.00;96222.91;5013050;28;20254;-86
2021/03/05 11:00:50;;;;;;;21.87;16.77;;;;;;;18.77;100.00;96220.63;5012833;28;20227;-86
2021/03/05 11:03:17;;;;;;;25.90;19.43;;;;;;;18.65;100.00;96216.94;5012609;28;20206;-86
2021/03/05 11:05:44;;;;;;;20.17;16.77;;;;;;;19.02;100.00;96225.22;5012597;28;20218;-86
2021/03/05 11:08:10;;;;;;;24.37;18.33;;;;;;;18.70;100.00;96218.94;5012748;28;20188;-87
2021/03/05 11:10:38;;;;;;;43.33;23.70;;;;;;;18.85;100.00;96222.22;5012859;28;20585;-85
2021/03/05 11:13:06;;;;;;;18.17;12.50;;;;;;;19.10;100.00;96219.63;5012675;28;20227;-86
2021/03/05 11:15:33;;;;;;;23.03;17.60;;;;;;;18.77;100.00;96220.63;5012810;28;20562;-86
2021/03/05 11:18:00;;;;;;;27.43;19.53;;;;;;;18.10;100.00;96202.34;5012444;28;20203;-86
2021/03/05 11:20:27;;;;;;;13.97;12.47;;;;;;;17.91;100.00;96204.81;5012803;28;20198;-86
2021/03/05 11:22:53;;;;;;;17.90;12.97;;;;;;;18.06;100.00;96194.78;5012878;28;20647;-86
2021/03/05 11:25:20;;;;;;;17.60;11.73;;;;;;;17.84;100.00;96193.38;5012543;28;20249;-87
2021/03/05 11:27:49;;;;;;;18.07;12.87;;;;;;;17.72;100.00;96195.78;5012346;28;20297;-86
2021/03/05 11:30:16;;;;;;;15.67;11.60;;;;;;;18.08;100.00;96205.22;5012343;28;20753;-86
2021/03/05 11:32:43;;;;;;;15.63;13.67;;;;;;;18.21;100.00;96196.38;5012543;28;20687;-86